createdAt,value
2023-03-06T00:01:02.045Z,-6.64
2023-03-06T00:03:30.105Z,-6.70
2023-03-06T00:05:59.209Z,-6.67
2023-03-06T00:08:29.262Z,-6.31
2023-03-06T00:10:58.291Z,-6.47
2023-03-06T00:13:30.223Z,-6.56
2023-03-06T00:16:01.210Z,-6.90
2023-03-06T00:18:29.548Z,-7.02
2023-03-06T00:20:57.965Z,-6.74
2023-03-06T00:23:26.232Z,-6.90
2023-03-06T00:25:54.273Z,-7.59
2023-03-06T00:28:22.433Z,-7.25
2023-03-06T00:30:50.880Z,-7.81
2023-03-06T00:33:19.201Z,-7.38
2023-03-06T00:35:47.591Z,-7.52
2023-03-06T00:38:15.730Z,-7.17
2023-03-06T00:40:43.782Z,-7.14
2023-03-06T00:43:15.108Z,-7.15
2023-03-06T00:45:43.445Z,-7.32
2023-03-06T00:48:11.405Z,-7.54
2023-03-06T00:50:39.646Z,-7.52
2023-03-06T00:53:08.553Z,-7.42
2023-03-06T00:55:36.649Z,-7.84
2023-03-06T00:58:05.157Z,-7.75
2023-03-06T01:00:33.220Z,-7.82
2023-03-06T01:03:01.141Z,-7.86
2023-03-06T01:05:30.618Z,-7.79
2023-03-06T01:08:00.578Z,-8.01
2023-03-06T01:10:29.071Z,-8.38
2023-03-06T01:12:57.605Z,-8.38
2023-03-06T01:15:27.122Z,-8.32
2023-03-06T01:17:55.623Z,-8.12
2023-03-06T01:20:23.982Z,-8.00
2023-03-06T01:22:52.183Z,-8.06
2023-03-06T01:25:26.449Z,-8.09
2023-03-06T01:27:54.595Z,-7.91
2023-03-06T01:30:22.608Z,-7.97
2023-03-06T01:32:50.690Z,-7.99
2023-03-06T01:35:19.018Z,-8.32
2023-03-06T01:37:46.951Z,-7.91
2023-03-06T01:40:15.163Z,-8.19
2023-03-06T01:42:43.392Z,-7.81
2023-03-06T01:45:14.680Z,-7.99
2023-03-06T01:47:42.852Z,-8.14
2023-03-06T01:50:11.975Z,-8.30
2023-03-06T01:52:56.241Z,-8.76
2023-03-06T01:55:33.946Z,-8.39
2023-03-06T01:58:11.293Z,-8.47
2023-03-06T02:00:41.476Z,-8.85
2023-03-06T02:03:22.912Z,-8.45
2023-03-06T02:05:51.504Z,-8.71
2023-03-06T02:08:23.372Z,-8.80
2023-03-06T02:11:15.702Z,-8.47
2023-03-06T02:13:45.085Z,-8.45
2023-03-06T02:16:15.572Z,-8.53
2023-03-06T02:18:46.119Z,-8.73
2023-03-06T02:21:25.566Z,-9.04
2023-03-06T02:23:56.316Z,-8.65
2023-03-06T02:26:27.095Z,-8.77
2023-03-06T02:28:57.805Z,-9.06
2023-03-06T02:31:31.287Z,-8.76
2023-03-06T02:34:17.049Z,-8.67
2023-03-06T02:37:02.788Z,-8.76
2023-03-06T02:39:34.278Z,-8.84
2023-03-06T02:42:02.280Z,-8.81
2023-03-06T02:44:35.265Z,-8.68
2023-03-06T02:47:03.598Z,-8.65
2023-03-06T02:49:31.608Z,-8.61
2023-03-06T02:51:59.684Z,-8.39
2023-03-06T02:54:27.853Z,-8.24
2023-03-06T02:56:56.061Z,-8.11
2023-03-06T02:59:24.778Z,-8.17
2023-03-06T03:01:54.801Z,-8.05
2023-03-06T03:04:22.811Z,-7.96
2023-03-06T03:06:50.993Z,-7.94
2023-03-06T03:09:19.628Z,-7.80
2023-03-06T03:11:47.752Z,-7.72
2023-03-06T03:14:16.996Z,-7.56
2023-03-06T03:16:47.288Z,-7.83
2023-03-06T03:19:15.311Z,-7.56
2023-03-06T03:21:44.125Z,-7.50
2023-03-06T03:24:12.200Z,-7.66
2023-03-06T03:26:40.463Z,-7.73
2023-03-06T03:29:13.755Z,-7.68
2023-03-06T03:31:41.892Z,-7.72
2023-03-06T03:34:10.375Z,-7.72
2023-03-06T03:36:41.374Z,-7.68
2023-03-06T03:39:11.140Z,-8.22
2023-03-06T03:41:39.375Z,-7.71
2023-03-06T03:44:10.980Z,-7.72
2023-03-06T03:46:39.538Z,-7.72
2023-03-06T03:49:12.557Z,-7.77
2023-03-06T03:51:41.075Z,-7.75
2023-03-06T03:54:09.476Z,-7.75
2023-03-06T03:56:44.762Z,-7.78
2023-03-06T03:59:26.803Z,-7.75
2023-03-06T04:02:15.036Z,-7.70
2023-03-06T04:04:51.560Z,-7.72
2023-03-06T04:07:19.825Z,-7.62
2023-03-06T04:09:48.212Z,-7.57
2023-03-06T04:12:16.545Z,-7.46
2023-03-06T04:14:44.795Z,-7.37
2023-03-06T04:17:13.291Z,-7.45
2023-03-06T04:19:41.331Z,-7.53
2023-03-06T04:22:09.847Z,-7.48
2023-03-06T04:24:39.975Z,-7.59
2023-03-06T04:27:08.548Z,-7.30
2023-03-06T04:29:37.545Z,-7.41
2023-03-06T04:32:07.496Z,-7.15
2023-03-06T04:34:35.905Z,-7.32
2023-03-06T04:37:04.750Z,-7.21
2023-03-06T04:39:32.867Z,-7.24
2023-03-06T04:42:00.877Z,-7.29
2023-03-06T04:44:29.098Z,-7.27
2023-03-06T04:46:57.302Z,-8.29
2023-03-06T04:49:25.200Z,-7.46
2023-03-06T04:51:53.397Z,-7.65
2023-03-06T04:54:21.551Z,-7.50
2023-03-06T04:56:49.778Z,-7.09
2023-03-06T04:59:18.046Z,-7.06
2023-03-06T05:01:46.719Z,-7.00
2023-03-06T05:04:15.113Z,-7.23
2023-03-06T05:06:43.513Z,-6.93
2023-03-06T05:09:11.600Z,-6.94
2023-03-06T05:11:40.387Z,-6.94
2023-03-06T05:14:11.356Z,-7.13
2023-03-06T05:16:39.671Z,-6.96
2023-03-06T05:19:08.252Z,-6.84
2023-03-06T05:21:36.232Z,-6.68
2023-03-06T05:24:04.541Z,-6.57
2023-03-06T05:26:34.955Z,-6.57
2023-03-06T05:29:03.273Z,-6.52
2023-03-06T05:31:31.527Z,-6.39
2023-03-06T05:34:00.758Z,-6.16
2023-03-06T05:36:28.984Z,-5.98
2023-03-06T05:38:57.411Z,-5.87
2023-03-06T05:41:25.578Z,-5.85
2023-03-06T05:43:54.111Z,-5.74
2023-03-06T05:46:22.792Z,-5.77
2023-03-06T05:48:53.312Z,-5.69
2023-03-06T05:51:21.934Z,-5.68
2023-03-06T05:53:50.385Z,-5.48
2023-03-06T05:56:19.261Z,-5.52
2023-03-06T05:58:48.032Z,-5.05
2023-03-06T06:01:20.380Z,-4.92
2023-03-06T06:03:49.194Z,-5.05
2023-03-06T06:06:18.646Z,-4.23
2023-03-06T06:08:46.984Z,-4.07
2023-03-06T06:11:15.777Z,-3.89
2023-03-06T06:13:43.994Z,-4.02
2023-03-06T06:16:19.929Z,-3.71
2023-03-06T06:18:48.406Z,-3.89
2023-03-06T06:21:16.708Z,-3.77
2023-03-06T06:23:44.980Z,-3.36
2023-03-06T06:26:13.047Z,-3.36
2023-03-06T06:28:41.148Z,-3.63
2023-03-06T06:31:13.931Z,-3.28
2023-03-06T06:33:42.565Z,-3.22
2023-03-06T06:36:21.478Z,-3.05
2023-03-06T06:38:49.948Z,-2.90
2023-03-06T06:44:09.544Z,-1.49
2023-03-06T06:49:35.786Z,-0.89
2023-03-06T06:52:05.552Z,-0.48
2023-03-06T06:54:34.843Z,-0.14
2023-03-06T06:57:03.167Z,0.41
2023-03-06T06:59:31.337Z,0.49
2023-03-06T07:01:59.704Z,0.66
2023-03-06T07:04:28.435Z,0.48
2023-03-06T07:06:57.322Z,0.27
2023-03-06T07:09:25.477Z,0.05
2023-03-06T07:11:53.763Z,-0.16
2023-03-06T07:14:22.268Z,-0.15
2023-03-06T07:16:50.678Z,-0.32
2023-03-06T07:19:19.068Z,-0.65
2023-03-06T07:21:47.208Z,-0.47
2023-03-06T07:24:15.521Z,-0.29
2023-03-06T07:26:48.228Z,-0.32
2023-03-06T07:29:16.751Z,-0.13
2023-03-06T07:31:45.643Z,-0.06
2023-03-06T07:34:15.296Z,0.07
2023-03-06T07:36:45.766Z,0.39
2023-03-06T07:39:14.933Z,0.39
2023-03-06T07:41:43.632Z,0.22
2023-03-06T07:44:11.780Z,0.53
2023-03-06T07:46:39.805Z,0.32
2023-03-06T07:49:11.566Z,0.36
2023-03-06T07:51:39.889Z,-0.07
2023-03-06T07:54:08.359Z,0.21
2023-03-06T07:56:37.110Z,-0.15
2023-03-06T07:59:05.510Z,0.12
2023-03-06T08:01:33.675Z,0.48
2023-03-06T08:04:02.290Z,0.39
2023-03-06T08:06:30.506Z,0.64
2023-03-06T08:08:59.378Z,1.01
2023-03-06T08:11:30.619Z,1.50
2023-03-06T08:13:59.694Z,0.97
2023-03-06T08:16:30.373Z,0.40
2023-03-06T08:18:59.030Z,0.78
2023-03-06T08:21:29.081Z,0.40
2023-03-06T08:23:58.801Z,0.11
2023-03-06T08:26:30.593Z,0.48
2023-03-06T08:29:00.423Z,0.60
2023-03-06T08:31:39.645Z,0.61
2023-03-06T08:34:11.787Z,0.66
2023-03-06T08:36:41.382Z,0.45
2023-03-06T08:39:09.992Z,0.68
2023-03-06T08:41:38.803Z,0.82
2023-03-06T08:44:08.354Z,0.74
2023-03-06T08:46:37.504Z,0.94
2023-03-06T08:49:05.783Z,0.90
2023-03-06T08:51:33.959Z,1.19
2023-03-06T08:54:02.514Z,1.20
2023-03-06T08:56:33.821Z,0.96
2023-03-06T08:59:05.502Z,1.10
2023-03-06T09:01:37.952Z,1.32
2023-03-06T09:04:11.062Z,1.25
2023-03-06T09:06:42.899Z,1.11
2023-03-06T09:09:11.556Z,1.16
2023-03-06T09:11:40.482Z,1.37
2023-03-06T09:14:08.918Z,1.15
2023-03-06T09:16:37.143Z,1.71
2023-03-06T09:19:05.517Z,2.08
2023-03-06T09:21:33.941Z,1.95
2023-03-06T09:24:02.498Z,1.86
2023-03-06T09:26:44.990Z,1.86
2023-03-06T09:29:16.460Z,1.32
2023-03-06T09:31:46.052Z,1.46
2023-03-06T09:34:14.649Z,1.67
2023-03-06T09:36:56.042Z,1.57
2023-03-06T09:39:27.530Z,1.64
2023-03-06T09:41:58.846Z,1.58
2023-03-06T09:44:35.114Z,1.46
2023-03-06T09:47:34.107Z,1.96
2023-03-06T09:50:38.799Z,2.17
2023-03-06T09:53:41.318Z,2.52
2023-03-06T09:56:19.683Z,2.49
2023-03-06T09:58:53.992Z,2.88
2023-03-06T10:01:38.371Z,2.42
2023-03-06T10:04:44.395Z,2.06
2023-03-06T10:07:28.582Z,1.70
2023-03-06T10:10:07.172Z,1.83
2023-03-06T10:12:42.741Z,1.73
2023-03-06T10:15:50.093Z,1.76
2023-03-06T10:18:18.486Z,1.86
2023-03-06T10:21:17.021Z,2.08
2023-03-06T10:24:09.838Z,1.93
2023-03-06T10:27:05.764Z,1.76
2023-03-06T10:30:01.649Z,1.56
2023-03-06T10:32:49.982Z,1.47
2023-03-06T10:35:50.438Z,1.53
2023-03-06T10:38:32.479Z,1.72
2023-03-06T10:41:28.381Z,1.65
2023-03-06T10:44:05.620Z,1.45
2023-03-06T10:46:42.614Z,1.11
2023-03-06T10:49:25.625Z,1.42
2023-03-06T10:52:15.240Z,1.38
2023-03-06T10:54:44.748Z,1.10
2023-03-06T10:57:31.726Z,1.01
2023-03-06T11:00:08.680Z,0.81
2023-03-06T11:02:41.358Z,0.80
2023-03-06T11:05:22.226Z,0.50
2023-03-06T11:07:57.371Z,0.70
2023-03-06T11:10:27.406Z,0.73
2023-03-06T11:13:21.961Z,0.82
2023-03-06T11:16:32.951Z,1.19
2023-03-06T11:19:07.512Z,0.94
2023-03-06T11:21:40.071Z,1.11
2023-03-06T11:24:21.730Z,1.03
2023-03-06T11:27:02.144Z,0.93
2023-03-06T11:29:45.141Z,0.93
2023-03-06T11:32:54.172Z,0.92
2023-03-06T11:35:28.814Z,0.78
2023-03-06T11:38:07.042Z,0.69
2023-03-06T11:40:50.502Z,0.47
2023-03-06T11:43:51.179Z,0.42
2023-03-06T11:46:29.339Z,0.33
2023-03-06T11:49:29.845Z,0.44
2023-03-06T11:52:04.816Z,0.49
2023-03-06T11:54:33.816Z,0.29
2023-03-06T11:57:22.798Z,0.42
2023-03-06T12:00:08.188Z,0.46
2023-03-06T12:03:20.439Z,0.58
2023-03-06T12:06:01.474Z,0.56
2023-03-06T12:09:21.243Z,0.56
2023-03-06T12:12:39.134Z,0.29
2023-03-06T12:15:44.732Z,0.40
2023-03-06T12:18:38.548Z,0.39
2023-03-06T12:21:54.343Z,0.41
2023-03-06T12:25:01.864Z,0.72
2023-03-06T12:28:04.247Z,0.74
2023-03-06T12:31:12.542Z,0.56
2023-03-06T12:34:38.772Z,0.79
2023-03-06T12:37:33.747Z,0.72
2023-03-06T12:40:32.703Z,0.67
2023-03-06T12:43:20.524Z,0.61
2023-03-06T12:45:53.539Z,0.57
2023-03-06T12:48:26.802Z,0.33
2023-03-06T12:50:55.626Z,0.34
2023-03-06T12:53:32.406Z,0.52
2023-03-06T12:56:02.472Z,0.61
2023-03-06T12:58:30.518Z,0.59
2023-03-06T13:01:28.332Z,0.51
2023-03-06T13:04:34.414Z,0.70
2023-03-06T13:07:37.276Z,0.56
2023-03-06T13:10:40.509Z,0.55
2023-03-06T13:13:44.888Z,0.70
2023-03-06T13:16:33.867Z,0.82
2023-03-06T13:19:11.567Z,0.89
2023-03-06T13:21:42.819Z,1.03
2023-03-06T13:24:37.870Z,1.12
2023-03-06T13:27:12.760Z,1.19
2023-03-06T13:29:40.772Z,1.27
2023-03-06T13:32:14.733Z,1.37
2023-03-06T13:34:50.381Z,1.43
2023-03-06T13:37:24.881Z,1.55
2023-03-06T13:39:56.006Z,1.53
2023-03-06T13:42:44.358Z,1.52
2023-03-06T13:45:26.190Z,1.48
2023-03-06T13:48:24.614Z,1.86
2023-03-06T13:50:49.834Z,2.01
2023-03-06T13:53:52.150Z,2.01
2023-03-06T13:56:44.722Z,2.20
2023-03-06T13:59:14.226Z,2.22
2023-03-06T14:02:01.128Z,2.24
2023-03-06T14:05:01.826Z,2.28
2023-03-06T14:07:40.788Z,2.11
2023-03-06T14:10:15.265Z,2.20
2023-03-06T14:12:50.048Z,2.42
2023-03-06T14:15:52.325Z,1.91
2023-03-06T14:18:34.132Z,2.50
2023-03-06T14:21:05.653Z,2.29
2023-03-06T14:23:45.690Z,2.52
2023-03-06T14:26:25.175Z,2.55
2023-03-06T14:28:53.821Z,2.58
2023-03-06T14:31:24.579Z,2.52
2023-03-06T14:34:01.300Z,2.57
2023-03-06T14:36:44.022Z,2.48
2023-03-06T14:39:38.581Z,2.56
2023-03-06T14:42:28.763Z,2.22
2023-03-06T14:45:19.213Z,2.51
2023-03-06T14:47:52.538Z,2.56
2023-03-06T14:50:31.250Z,2.54
2023-03-06T14:53:24.084Z,2.57
2023-03-06T14:56:07.938Z,2.27
2023-03-06T14:59:10.603Z,2.58
2023-03-06T15:01:43.741Z,2.56
2023-03-06T15:04:21.737Z,2.60
2023-03-06T15:06:51.824Z,2.51
2023-03-06T15:09:33.181Z,2.59
2023-03-06T15:12:09.024Z,2.27
2023-03-06T15:14:43.227Z,2.53
2023-03-06T15:17:32.437Z,2.53
2023-03-06T15:20:01.646Z,2.21
2023-03-06T15:22:38.036Z,2.21
2023-03-06T15:25:31.051Z,2.42
2023-03-06T15:28:38.824Z,2.43
2023-03-06T15:31:24.865Z,2.26
2023-03-06T15:34:12.397Z,2.47
2023-03-06T15:36:51.633Z,2.45
2023-03-06T15:39:40.715Z,2.42
2023-03-06T15:42:25.889Z,2.11
2023-03-06T15:45:03.625Z,2.35
2023-03-06T15:47:31.919Z,2.33
2023-03-06T15:50:00.171Z,1.95
2023-03-06T15:52:31.461Z,2.19
2023-03-06T15:54:59.860Z,2.19
2023-03-06T15:57:31.709Z,1.82
2023-03-06T16:00:01.668Z,1.99
2023-03-06T16:02:39.570Z,1.80
2023-03-06T16:05:17.281Z,1.61
2023-03-06T16:07:45.651Z,1.89
2023-03-06T16:10:17.943Z,1.89
2023-03-06T16:12:51.191Z,1.80
2023-03-06T16:15:29.308Z,1.79
2023-03-06T16:17:59.018Z,1.46
2023-03-06T16:20:29.357Z,0.83
2023-03-06T16:22:57.481Z,1.42
2023-03-06T16:25:28.535Z,1.19
2023-03-06T16:27:58.458Z,1.46
2023-03-06T16:30:29.938Z,1.51
2023-03-06T16:32:58.793Z,1.62
2023-03-06T16:35:27.462Z,1.63
2023-03-06T16:37:55.945Z,1.33
2023-03-06T16:40:32.889Z,1.53
2023-03-06T16:43:01.186Z,1.65
2023-03-06T16:45:29.307Z,1.64
2023-03-06T16:47:59.424Z,1.46
2023-03-06T16:50:37.800Z,1.74
2023-03-06T16:53:08.119Z,1.41
2023-03-06T16:55:36.868Z,1.82
2023-03-06T16:58:05.525Z,1.28
2023-03-06T17:00:34.039Z,1.70
2023-03-06T17:03:02.958Z,1.69
2023-03-06T17:05:35.172Z,1.59
2023-03-06T17:08:04.683Z,1.45
2023-03-06T17:10:32.885Z,1.63
2023-03-06T17:13:01.627Z,1.48
2023-03-06T17:15:30.104Z,1.62
2023-03-06T17:17:59.225Z,1.63
2023-03-06T17:20:27.826Z,1.33
2023-03-06T17:22:56.713Z,0.72
2023-03-06T17:25:25.459Z,1.25
2023-03-06T17:27:54.793Z,1.43
2023-03-06T17:30:23.098Z,1.45
2023-03-06T17:32:51.326Z,1.38
2023-03-06T17:35:19.943Z,1.44
2023-03-06T17:37:48.655Z,1.43
2023-03-06T17:40:16.930Z,1.06
2023-03-06T17:42:45.742Z,1.45
2023-03-06T17:45:15.084Z,1.14
2023-03-06T17:47:43.421Z,1.51
2023-03-06T17:50:13.024Z,1.18
2023-03-06T17:52:41.792Z,1.41
2023-03-06T17:55:11.171Z,1.39
2023-03-06T17:57:39.926Z,1.24
2023-03-06T18:00:12.788Z,1.27
2023-03-06T18:02:41.245Z,1.24
2023-03-06T18:05:10.054Z,1.20
2023-03-06T18:07:38.617Z,0.90
2023-03-06T18:10:10.548Z,1.10
2023-03-06T18:12:39.145Z,0.99
2023-03-06T18:15:08.931Z,0.95
2023-03-06T18:17:38.816Z,0.80
2023-03-06T18:20:09.676Z,0.95
2023-03-06T18:22:38.105Z,0.94
2023-03-06T18:25:06.864Z,0.93
2023-03-06T18:27:37.404Z,0.93
2023-03-06T18:30:06.974Z,0.90
2023-03-06T18:32:36.551Z,0.55
2023-03-06T18:35:07.040Z,0.62
2023-03-06T18:37:35.349Z,0.46
2023-03-06T18:40:03.870Z,0.76
2023-03-06T18:42:36.274Z,0.72
2023-03-06T18:45:06.357Z,0.67
2023-03-06T18:47:35.076Z,0.62
2023-03-06T18:50:04.419Z,0.60
2023-03-06T18:52:35.128Z,0.41
2023-03-06T18:55:04.242Z,0.32
2023-03-06T18:57:32.450Z,0.53
2023-03-06T19:00:01.811Z,0.61
2023-03-06T19:02:30.484Z,0.54
2023-03-06T19:04:59.064Z,0.59
2023-03-06T19:07:27.615Z,0.60
2023-03-06T19:09:55.972Z,0.45
2023-03-06T19:12:24.239Z,0.63
2023-03-06T19:14:53.620Z,0.61
2023-03-06T19:17:24.937Z,0.65
2023-03-06T19:19:56.984Z,0.44
2023-03-06T19:22:26.229Z,0.62
2023-03-06T19:24:55.091Z,0.62
2023-03-06T19:27:23.525Z,0.63
2023-03-06T19:29:52.682Z,0.65
2023-03-06T19:32:22.448Z,0.45
2023-03-06T19:34:51.539Z,0.66
2023-03-06T19:37:20.253Z,0.43
2023-03-06T19:39:49.048Z,0.48
2023-03-06T19:42:18.112Z,0.42
2023-03-06T19:44:46.519Z,0.57
2023-03-06T19:47:14.980Z,0.57
2023-03-06T19:49:43.520Z,0.48
2023-03-06T19:52:12.867Z,0.41
2023-03-06T19:54:42.205Z,0.46
2023-03-06T19:57:11.828Z,0.36
2023-03-06T19:59:40.638Z,-0.04
2023-03-06T20:02:12.063Z,0.34
2023-03-06T20:04:40.587Z,0.37
2023-03-06T20:07:10.124Z,0.34
2023-03-06T20:09:40.341Z,0.35
2023-03-06T20:12:09.761Z,0.35
2023-03-06T20:14:39.420Z,0.16
2023-03-06T20:17:11.812Z,0.31
2023-03-06T20:19:41.818Z,0.28
2023-03-06T20:22:10.706Z,0.27
2023-03-06T20:24:41.322Z,0.25
2023-03-06T20:27:09.875Z,0.24
2023-03-06T20:29:43.744Z,0.23
2023-03-06T20:32:14.585Z,0.19
2023-03-06T20:34:44.173Z,0.22
2023-03-06T20:37:12.624Z,0.22
2023-03-06T20:39:41.295Z,0.17
2023-03-06T20:42:09.852Z,0.01
2023-03-06T20:44:38.871Z,0.22
2023-03-06T20:47:13.288Z,0.19
2023-03-06T20:49:42.384Z,-0.04
2023-03-06T20:52:10.910Z,0.08
2023-03-06T20:54:40.147Z,0.26
2023-03-06T20:57:09.792Z,0.28
2023-03-06T20:59:38.944Z,0.27
2023-03-06T21:02:10.999Z,0.13
2023-03-06T21:04:41.312Z,0.24
2023-03-06T21:07:09.790Z,0.20
2023-03-06T21:09:41.635Z,0.15
2023-03-06T21:12:10.785Z,0.07
2023-03-06T21:14:40.586Z,0.03
2023-03-06T21:17:13.975Z,-0.13
2023-03-06T21:19:43.616Z,0.02
2023-03-06T21:22:14.085Z,-0.04
2023-03-06T21:24:44.397Z,-0.19
2023-03-06T21:27:13.300Z,-0.06
2023-03-06T21:29:41.802Z,-0.12
2023-03-06T21:32:10.677Z,-0.02
2023-03-06T21:34:39.801Z,0.03
2023-03-06T21:37:09.161Z,0.00
2023-03-06T21:39:38.843Z,-0.02
2023-03-06T21:42:11.184Z,-0.23
2023-03-06T21:44:39.743Z,-0.04
2023-03-06T21:47:09.013Z,-0.02
2023-03-06T21:49:37.668Z,-0.04
2023-03-06T21:52:06.611Z,-0.17
2023-03-06T21:54:35.669Z,0.06
2023-03-06T21:57:04.710Z,0.12
2023-03-06T21:59:32.895Z,0.14
2023-03-06T22:02:02.160Z,-0.23
2023-03-06T22:04:31.337Z,0.22
2023-03-06T22:06:59.895Z,0.24
2023-03-06T22:09:28.805Z,0.07
2023-03-06T22:11:57.998Z,0.23
2023-03-06T22:14:26.789Z,0.23
2023-03-06T22:16:57.000Z,0.15
2023-03-06T22:19:26.464Z,0.27
2023-03-06T22:21:55.943Z,0.08
2023-03-06T22:24:24.302Z,0.32
2023-03-06T22:26:52.847Z,0.20
2023-03-06T22:29:21.196Z,0.36
2023-03-06T22:31:49.684Z,0.37
2023-03-06T22:34:19.394Z,0.36
2023-03-06T22:36:48.526Z,0.36
2023-03-06T22:39:17.559Z,0.36
2023-03-06T22:41:47.483Z,0.32
2023-03-06T22:44:20.026Z,0.34
2023-03-06T22:46:49.536Z,0.15
2023-03-06T22:49:19.284Z,0.31
2023-03-06T22:51:48.334Z,0.09
2023-03-06T22:54:17.197Z,0.29
2023-03-06T22:56:45.489Z,0.27
2023-03-06T22:59:14.308Z,0.19
2023-03-06T23:01:43.824Z,-0.33
2023-03-06T23:04:12.587Z,0.03
2023-03-06T23:06:43.420Z,-0.28
2023-03-06T23:09:22.549Z,-0.07
2023-03-06T23:12:11.629Z,-0.07
2023-03-06T23:14:58.441Z,-0.08
2023-03-06T23:17:45.258Z,-0.04
2023-03-06T23:20:32.920Z,-0.07
2023-03-06T23:23:20.064Z,-0.16
2023-03-06T23:25:49.095Z,-0.22
2023-03-06T23:28:17.639Z,-0.26
2023-03-06T23:30:45.930Z,-0.27
2023-03-06T23:33:14.098Z,-0.32
2023-03-06T23:35:44.294Z,-0.32
2023-03-06T23:38:13.344Z,-0.40
2023-03-06T23:40:42.555Z,-0.45
2023-03-06T23:43:10.572Z,-0.56
2023-03-06T23:45:39.370Z,-0.49
2023-03-06T23:48:09.669Z,-0.76
2023-03-06T23:50:41.192Z,-0.54
2023-03-06T23:53:09.330Z,-0.43
2023-03-06T23:55:43.313Z,-0.37
2023-03-06T23:58:12.327Z,-0.28
